sensor_id;sensor_type;location;lat;lon;timestamp;pressure;altitude;pressure_sealevel;temperature;humidity
59009;BME280;44794;42.652;23.318;2023-03-01T00:00:40;94872.78;;;5.45;100.00
59009;BME280;44794;42.652;23.318;2023-03-01T00:03:06;94860.13;;;5.40;100.00
59009;BME280;44794;42.652;23.318;2023-03-01T00:05:31;94864.47;;;5.40;100.00
59009;BME280;44794;42.652;23.318;2023-03-01T00:07:57;94864.47;;;5.40;100.00
59009;BME280;44794;42.652;23.318;2023-03-01T00:10:23;94864.50;;;5.38;100.00
59009;BME280;44794;42.652;23.318;2023-03-01T00:12:48;94858.00;;;5.31;100.00
59009;BME280;44794;42.652;23.318;2023-03-01T00:15:14;94860.44;;;5.34;100.00
59009;BME280;44794;42.652;23.318;2023-03-01T00:17:39;94859.69;;;5.32;100.00
59009;BME280;44794;42.652;23.318;2023-03-01T00:20:05;94859.97;;;5.26;100.00
59009;BME280;44794;42.652;23.318;2023-03-01T00:22:35;94849.78;;;5.25;100.00
59009;BME280;44794;42.652;23.318;2023-03-01T00:25:01;94849.78;;;5.25;100.00
59009;BME280;44794;42.652;23.318;2023-03-01T00:27:27;94838.13;;;5.18;100.00
59009;BME280;44794;42.652;23.318;2023-03-01T00:29:52;94832.75;;;5.22;100.00
59009;BME280;44794;42.652;23.318;2023-03-01T00:32:17;94828.31;;;5.24;100.00
59009;BME280;44794;42.652;23.318;2023-03-01T00:34:43;94830.00;;;5.25;100.00
59009;BME280;44794;42.652;23.318;2023-03-01T00:37:19;94824.56;;;5.15;100.00
59009;BME280;44794;42.652;23.318;2023-03-01T00:39:44;94821.91;;;5.16;100.00
59009;BME280;44794;42.652;23.318;2023-03-01T00:42:10;94816.53;;;5.20;100.00
59009;BME280;44794;42.652;23.318;2023-03-01T00:44:35;94818.66;;;5.13;100.00
59009;BME280;44794;42.652;23.318;2023-03-01T00:47:01;94816.22;;;5.10;100.00
59009;BME280;44794;42.652;23.318;2023-03-01T00:49:26;94812.81;;;5.09;100.00
59009;BME280;44794;42.652;23.318;2023-03-01T00:51:53;94826.59;;;5.08;100.00
59009;BME280;44794;42.652;23.318;2023-03-01T00:54:18;94816.22;;;5.10;100.00
59009;BME280;44794;42.652;23.318;2023-03-01T00:56:44;94808.50;;;5.10;100.00
59009;BME280;44794;42.652;23.318;2023-03-01T00:59:09;94811.81;;;5.12;100.00
59009;BME280;44794;42.652;23.318;2023-03-01T01:01:34;94813.50;;;5.13;100.00
59009;BME280;44794;42.652;23.318;2023-03-01T01:04:07;94823.56;;;5.17;100.00
59009;BME280;44794;42.652;23.318;2023-03-01T01:06:35;94817.81;;;5.12;100.00
59009;BME280;44794;42.652;23.318;2023-03-01T01:09:02;94816.38;;;5.07;100.00
59009;BME280;44794;42.652;23.318;2023-03-01T01:11:29;94812.81;;;5.09;100.00
59009;BME280;44794;42.652;23.318;2023-03-01T01:13:55;94824.09;;;5.07;100.00
59009;BME280;44794;42.652;23.318;2023-03-01T01:16:23;94807.06;;;5.04;100.00
59009;BME280;44794;42.652;23.318;2023-03-01T01:18:50;94816.22;;;5.10;100.00
59009;BME280;44794;42.652;23.318;2023-03-01T01:21:18;94816.44;;;5.05;100.00
59009;BME280;44794;42.652;23.318;2023-03-01T01:23:44;94820.97;;;5.00;100.00
59009;BME280;44794;42.652;23.318;2023-03-01T01:26:16;94815.84;;;5.00;100.00
59009;BME280;44794;42.652;23.318;2023-03-01T01:28:42;94813.25;;;5.00;100.00
59009;BME280;44794;42.652;23.318;2023-03-01T01:31:08;94814.34;;;4.96;100.00
59009;BME280;44794;42.652;23.318;2023-03-01T01:33:34;94821.06;;;4.99;100.00
59009;BME280;44794;42.652;23.318;2023-03-01T01:35:59;94828.00;;;4.97;100.00
59009;BME280;44794;42.652;23.318;2023-03-01T01:38:25;94838.19;;;5.00;100.00
59009;BME280;44794;42.652;23.318;2023-03-01T01:40:51;94839.97;;;4.98;100.00
59009;BME280;44794;42.652;23.318;2023-03-01T01:43:47;94848.78;;;4.94;100.00
59009;BME280;44794;42.652;23.318;2023-03-01T01:48:54;94855.41;;;4.98;100.00
59009;BME280;44794;42.652;23.318;2023-03-01T01:51:25;94852.97;;;4.95;100.00
59009;BME280;44794;42.652;23.318;2023-03-01T01:53:57;94863.13;;;4.98;100.00
59009;BME280;44794;42.652;23.318;2023-03-01T01:56:26;94849.59;;;4.94;100.00
59009;BME280;44794;42.652;23.318;2023-03-01T01:58:53;94850.97;;;5.01;100.00
59009;BME280;44794;42.652;23.318;2023-03-01T02:01:20;94850.13;;;5.01;100.00
59009;BME280;44794;42.652;23.318;2023-03-01T02:03:46;94836.06;;;5.08;100.00
59009;BME280;44794;42.652;23.318;2023-03-01T02:06:37;94844.69;;;5.07;100.00
59009;BME280;44794;42.652;23.318;2023-03-01T02:09:08;94839.53;;;5.07;100.00
59009;BME280;44794;42.652;23.318;2023-03-01T02:11:36;94840.13;;;5.12;100.00
59009;BME280;44794;42.652;23.318;2023-03-01T02:14:03;94840.31;;;5.09;100.00
59009;BME280;44794;42.652;23.318;2023-03-01T02:16:29;94845.47;;;5.09;100.00
59009;BME280;44794;42.652;23.318;2023-03-01T02:18:56;94851.50;;;5.08;100.00
59009;BME280;44794;42.652;23.318;2023-03-01T02:26:45;94856.47;;;5.11;100.00
59009;BME280;44794;42.652;23.318;2023-03-01T02:29:12;94856.34;;;5.14;100.00
59009;BME280;44794;42.652;23.318;2023-03-01T02:31:38;94862.88;;;5.20;100.00
59009;BME280;44794;42.652;23.318;2023-03-01T02:34:09;94868.22;;;5.16;100.00
59009;BME280;44794;42.652;23.318;2023-03-01T02:36:47;94876.78;;;5.17;100.00
59009;BME280;44794;42.652;23.318;2023-03-01T02:39:59;94873.59;;;5.12;100.00
59009;BME280;44794;42.652;23.318;2023-03-01T02:42:11;94873.91;;;5.06;100.00
59009;BME280;44794;42.652;23.318;2023-03-01T02:44:37;94863.38;;;5.10;100.00
59009;BME280;44794;42.652;23.318;2023-03-01T02:47:03;94866.94;;;5.08;100.00
59009;BME280;44794;42.652;23.318;2023-03-01T02:49:35;94866.19;;;5.06;100.00
59009;BME280;44794;42.652;23.318;2023-03-01T02:55:00;94867.09;;;5.05;100.00
59009;BME280;44794;42.652;23.318;2023-03-01T02:57:27;94854.50;;;4.99;100.00
59009;BME280;44794;42.652;23.318;2023-03-01T02:59:54;94864.81;;;4.99;100.00
59009;BME280;44794;42.652;23.318;2023-03-01T03:02:21;94859.59;;;5.00;100.00
59009;BME280;44794;42.652;23.318;2023-03-01T03:05:02;94852.06;;;4.96;100.00
59009;BME280;44794;42.652;23.318;2023-03-01T03:07:28;94846.78;;;4.99;100.00
59009;BME280;44794;42.652;23.318;2023-03-01T03:09:53;94850.28;;;4.98;100.00
59009;BME280;44794;42.652;23.318;2023-03-01T03:12:18;94844.34;;;4.96;100.00
59009;BME280;44794;42.652;23.318;2023-03-01T03:14:44;94846.13;;;4.95;100.00
59009;BME280;44794;42.652;23.318;2023-03-01T03:17:09;94850.28;;;4.98;100.00
59009;BME280;44794;42.652;23.318;2023-03-01T03:19:34;94847.84;;;4.95;100.00
59009;BME280;44794;42.652;23.318;2023-03-01T03:22:00;94849.38;;;4.99;100.00
59009;BME280;44794;42.652;23.318;2023-03-01T03:24:25;94856.19;;;5.00;100.00
59009;BME280;44794;42.652;23.318;2023-03-01T03:26:52;94857.22;;;4.96;100.00
59009;BME280;44794;42.652;23.318;2023-03-01T03:29:17;94846.94;;;4.96;100.00
59009;BME280;44794;42.652;23.318;2023-03-01T03:31:43;94853.75;;;4.97;100.00
59009;BME280;44794;42.652;23.318;2023-03-01T03:34:08;94840.28;;;4.92;100.00
59009;BME280;44794;42.652;23.318;2023-03-01T03:36:42;94847.91;;;4.93;100.00
59009;BME280;44794;42.652;23.318;2023-03-01T03:39:07;94847.09;;;4.93;100.00
59009;BME280;44794;42.652;23.318;2023-03-01T03:41:34;94847.91;;;4.93;100.00
59009;BME280;44794;42.652;23.318;2023-03-01T03:44:00;94848.78;;;4.94;100.00
59009;BME280;44794;42.652;23.318;2023-03-01T03:46:25;94845.56;;;4.89;100.00
59009;BME280;44794;42.652;23.318;2023-03-01T03:48:51;94850.94;;;4.84;100.00
59009;BME280;44794;42.652;23.318;2023-03-01T03:51:17;94847.41;;;4.87;100.00
59009;BME280;44794;42.652;23.318;2023-03-01T03:53:43;94856.72;;;4.89;100.00
59009;BME280;44794;42.652;23.318;2023-03-01T03:56:09;94844.81;;;4.87;100.00
59009;BME280;44794;42.652;23.318;2023-03-01T03:58:35;94854.94;;;4.90;100.00
59009;BME280;44794;42.652;23.318;2023-03-01T04:01:00;94839.72;;;4.85;100.00
59009;BME280;44794;42.652;23.318;2023-03-01T04:03:28;94855.72;;;4.92;100.00
59009;BME280;44794;42.652;23.318;2023-03-01T04:05:54;94850.88;;;4.86;100.00
59009;BME280;44794;42.652;23.318;2023-03-01T04:08:21;94854.25;;;4.86;100.00
59009;BME280;44794;42.652;23.318;2023-03-01T04:10:51;94857.53;;;4.90;100.00
59009;BME280;44794;42.652;23.318;2023-03-01T04:13:21;94860.56;;;4.98;100.00
59009;BME280;44794;42.652;23.318;2023-03-01T04:15:51;94858.91;;;4.97;100.00
59009;BME280;44794;42.652;23.318;2023-03-01T04:18:18;94853.06;;;4.93;100.00
59009;BME280;44794;42.652;23.318;2023-03-01T04:20:45;94856.91;;;4.85;100.00
59009;BME280;44794;42.652;23.318;2023-03-01T04:23:18;94855.16;;;4.85;100.00
59009;BME280;44794;42.652;23.318;2023-03-01T04:25:51;94862.66;;;4.90;100.00
59009;BME280;44794;42.652;23.318;2023-03-01T04:28:32;94865.16;;;4.91;100.00
59009;BME280;44794;42.652;23.318;2023-03-01T04:31:03;94868.53;;;4.75;100.00
59009;BME280;44794;42.652;23.318;2023-03-01T04:33:58;94859.78;;;4.79;100.00
59009;BME280;44794;42.652;23.318;2023-03-01T04:36:26;94860.47;;;4.82;100.00
59009;BME280;44794;42.652;23.318;2023-03-01T04:38:52;94858.50;;;4.87;100.00
59009;BME280;44794;42.652;23.318;2023-03-01T04:41:19;94859.31;;;4.88;100.00
59009;BME280;44794;42.652;23.318;2023-03-01T04:43:44;94861.91;;;4.88;100.00
59009;BME280;44794;42.652;23.318;2023-03-01T04:46:13;94866.91;;;4.91;100.00
59009;BME280;44794;42.652;23.318;2023-03-01T04:48:40;94862.53;;;4.93;100.00
59009;BME280;44794;42.652;23.318;2023-03-01T04:51:06;94853.22;;;4.90;100.00
59009;BME280;44794;42.652;23.318;2023-03-01T04:53:34;94853.38;;;4.87;100.00
59009;BME280;44794;42.652;23.318;2023-03-01T04:56:02;94854.34;;;4.85;100.00
59009;BME280;44794;42.652;23.318;2023-03-01T04:58:28;94856.03;;;4.86;100.00
59009;BME280;44794;42.652;23.318;2023-03-01T05:00:54;94850.09;;;4.84;100.00
59009;BME280;44794;42.652;23.318;2023-03-01T05:03:21;94853.50;;;4.84;100.00
59009;BME280;44794;42.652;23.318;2023-03-01T05:05:49;94854.34;;;4.85;100.00
59009;BME280;44794;42.652;23.318;2023-03-01T05:08:15;94857.97;;;4.81;100.00
59009;BME280;44794;42.652;23.318;2023-03-01T05:10:50;94859.63;;;4.82;100.00
59009;BME280;44794;42.652;23.318;2023-03-01T05:13:16;94861.00;;;4.89;100.00
59009;BME280;44794;42.652;23.318;2023-03-01T05:15:57;94857.75;;;4.85;100.00
59009;BME280;44794;42.652;23.318;2023-03-01T05:18:24;94854.19;;;4.88;100.00
59009;BME280;44794;42.652;23.318;2023-03-01T05:21:06;94855.72;;;4.92;100.00
59009;BME280;44794;42.652;23.318;2023-03-01T05:23:32;94862.38;;;4.96;100.00
59009;BME280;44794;42.652;23.318;2023-03-01T05:26:02;94862.38;;;4.96;100.00
59009;BME280;44794;42.652;23.318;2023-03-01T05:28:29;94864.91;;;4.97;100.00
59009;BME280;44794;42.652;23.318;2023-03-01T05:30:55;94877.06;;;4.94;100.00
59009;BME280;44794;42.652;23.318;2023-03-01T05:33:21;94876.13;;;4.95;100.00
59009;BME280;44794;42.652;23.318;2023-03-01T05:35:47;94863.53;;;4.90;100.00
59009;BME280;44794;42.652;23.318;2023-03-01T05:38:14;94864.72;;;5.00;100.00
59009;BME280;44794;42.652;23.318;2023-03-01T05:40:41;94875.88;;;5.01;100.00
59009;BME280;44794;42.652;23.318;2023-03-01T05:43:07;94869.75;;;5.03;100.00
59009;BME280;44794;42.652;23.318;2023-03-01T05:45:33;94873.06;;;5.05;100.00
59009;BME280;44794;42.652;23.318;2023-03-01T05:48:00;94876.94;;;5.14;100.00
59009;BME280;44794;42.652;23.318;2023-03-01T05:50:29;94889.59;;;5.18;100.00
59009;BME280;44794;42.652;23.318;2023-03-01T05:53:02;94890.88;;;5.26;100.00
59009;BME280;44794;42.652;23.318;2023-03-01T05:55:30;94893.66;;;5.22;100.00
59009;BME280;44794;42.652;23.318;2023-03-01T05:58:01;94899.88;;;5.18;100.00
59009;BME280;44794;42.652;23.318;2023-03-01T06:00:28;94902.84;;;5.27;100.00
59009;BME280;44794;42.652;23.318;2023-03-01T06:02:55;94901.59;;;5.18;100.00
59009;BME280;44794;42.652;23.318;2023-03-01T06:05:22;94911.56;;;5.25;100.00
59009;BME280;44794;42.652;23.318;2023-03-01T06:07:48;94916.63;;;5.26;100.00
59009;BME280;44794;42.652;23.318;2023-03-01T06:10:15;94913.59;;;5.35;100.00
59009;BME280;44794;42.652;23.318;2023-03-01T06:12:42;94923.91;;;5.35;100.00
59009;BME280;44794;42.652;23.318;2023-03-01T06:15:09;94932.22;;;5.40;100.00
59009;BME280;44794;42.652;23.318;2023-03-01T06:17:36;94934.59;;;5.45;100.00
59009;BME280;44794;42.652;23.318;2023-03-01T06:20:10;94933.59;;;5.47;100.00
59009;BME280;44794;42.652;23.318;2023-03-01T06:22:36;94933.50;;;5.49;100.00
59009;BME280;44794;42.652;23.318;2023-03-01T06:25:02;94935.41;;;5.45;100.00
59009;BME280;44794;42.652;23.318;2023-03-01T06:27:28;94937.25;;;5.43;100.00
59009;BME280;44794;42.652;23.318;2023-03-01T06:29:53;94934.03;;;5.38;100.00
59009;BME280;44794;42.652;23.318;2023-03-01T06:32:19;94928.88;;;5.38;100.00
59009;BME280;44794;42.652;23.318;2023-03-01T06:34:44;94935.72;;;5.39;100.00
59009;BME280;44794;42.652;23.318;2023-03-01T06:37:10;94928.31;;;5.50;100.00
59009;BME280;44794;42.652;23.318;2023-03-01T06:39:36;94938.44;;;5.53;100.00
59009;BME280;44794;42.652;23.318;2023-03-01T06:42:01;94933.16;;;5.56;100.00
59009;BME280;44794;42.652;23.318;2023-03-01T06:44:27;94943.59;;;5.53;100.00
59009;BME280;44794;42.652;23.318;2023-03-01T06:46:53;94939.28;;;5.54;100.00
59009;BME280;44794;42.652;23.318;2023-03-01T06:49:18;94938.81;;;5.63;100.00
59009;BME280;44794;42.652;23.318;2023-03-01T06:51:45;94936.88;;;5.68;100.00
59009;BME280;44794;42.652;23.318;2023-03-01T06:54:11;94934.34;;;5.66;100.00
59009;BME280;44794;42.652;23.318;2023-03-01T06:56:37;94936.88;;;5.68;100.00
59009;BME280;44794;42.652;23.318;2023-03-01T06:59:03;94941.47;;;5.61;100.00
59009;BME280;44794;42.652;23.318;2023-03-01T07:01:29;94943.00;;;5.65;100.00
59009;BME280;44794;42.652;23.318;2023-03-01T07:03:54;94933.66;;;5.63;100.00
59009;BME280;44794;42.652;23.318;2023-03-01T07:06:20;94936.38;;;5.78;100.00
59009;BME280;44794;42.652;23.318;2023-03-01T07:08:46;94944.22;;;5.75;100.00
59009;BME280;44794;42.652;23.318;2023-03-01T07:11:11;94938.31;;;5.90;100.00
59009;BME280;44794;42.652;23.318;2023-03-01T07:13:37;94941.19;;;6.01;100.00
59009;BME280;44794;42.652;23.318;2023-03-01T07:16:02;94946.56;;;5.96;100.00
59009;BME280;44794;42.652;23.318;2023-03-01T07:18:28;94946.97;;;5.89;100.00
59009;BME280;44794;42.652;23.318;2023-03-01T07:20:53;94948.69;;;6.05;100.00
59009;BME280;44794;42.652;23.318;2023-03-01T07:23:19;94941.16;;;6.18;100.00
59009;BME280;44794;42.652;23.318;2023-03-01T07:25:44;94957.66;;;6.31;99.28
59009;BME280;44794;42.652;23.318;2023-03-01T07:28:15;94943.78;;;6.33;98.65
59009;BME280;44794;42.652;23.318;2023-03-01T07:30:41;94948.03;;;6.50;97.92
59009;BME280;44794;42.652;23.318;2023-03-01T07:33:06;94952.63;;;6.45;97.12
59009;BME280;44794;42.652;23.318;2023-03-01T07:35:32;94943.63;;;6.36;96.99
59009;BME280;44794;42.652;23.318;2023-03-01T07:37:58;94948.31;;;6.61;96.77
59009;BME280;44794;42.652;23.318;2023-03-01T07:40:23;94944.84;;;6.92;95.87
59009;BME280;44794;42.652;23.318;2023-03-01T07:42:49;94960.75;;;7.16;94.54
59009;BME280;44794;42.652;23.318;2023-03-01T07:45:14;94967.09;;;7.10;92.10
59009;BME280;44794;42.652;23.318;2023-03-01T07:47:40;94965.69;;;6.89;92.34
59009;BME280;44794;42.652;23.318;2023-03-01T07:50:06;94961.66;;;6.84;91.64
59009;BME280;44794;42.652;23.318;2023-03-01T07:52:31;94957.56;;;6.80;92.16
59009;BME280;44794;42.652;23.318;2023-03-01T07:54:57;94948.84;;;6.82;92.77
59009;BME280;44794;42.652;23.318;2023-03-01T07:57:23;94945.19;;;6.86;92.46
59009;BME280;44794;42.652;23.318;2023-03-01T07:59:48;94953.91;;;6.99;91.91
59009;BME280;44794;42.652;23.318;2023-03-01T08:02:14;94950.41;;;7.16;91.53
59009;BME280;44794;42.652;23.318;2023-03-01T08:04:40;94950.66;;;7.27;90.30
59009;BME280;44794;42.652;23.318;2023-03-01T08:07:06;94957.13;;;7.49;89.71
59009;BME280;44794;42.652;23.318;2023-03-01T08:09:34;94948.72;;;7.45;89.21
59009;BME280;44794;42.652;23.318;2023-03-01T08:12:00;94950.41;;;7.31;89.09
59009;BME280;44794;42.652;23.318;2023-03-01T08:14:26;94957.00;;;7.06;89.48
59009;BME280;44794;42.652;23.318;2023-03-01T08:16:51;94957.16;;;7.18;89.78
59009;BME280;44794;42.652;23.318;2023-03-01T08:19:17;94944.38;;;7.46;89.73
59009;BME280;44794;42.652;23.318;2023-03-01T08:21:42;94950.94;;;7.51;88.16
59009;BME280;44794;42.652;23.318;2023-03-01T08:24:08;94956.16;;;7.36;86.96
59009;BME280;44794;42.652;23.318;2023-03-01T08:26:36;94962.44;;;7.46;86.93
59009;BME280;44794;42.652;23.318;2023-03-01T08:29:02;94955.94;;;7.84;86.55
59009;BME280;44794;42.652;23.318;2023-03-01T08:31:33;94962.75;;;8.14;85.11
59009;BME280;44794;42.652;23.318;2023-03-01T08:34:02;94969.19;;;7.93;84.06
59009;BME280;44794;42.652;23.318;2023-03-01T08:36:31;94966.81;;;7.75;84.99
59009;BME280;44794;42.652;23.318;2023-03-01T08:38:57;94959.09;;;7.59;85.78
59009;BME280;44794;42.652;23.318;2023-03-01T08:41:23;94952.38;;;8.00;85.52
59009;BME280;44794;42.652;23.318;2023-03-01T08:43:49;94961.66;;;8.04;83.37
59009;BME280;44794;42.652;23.318;2023-03-01T08:46:14;94962.84;;;7.69;84.16
59009;BME280;44794;42.652;23.318;2023-03-01T08:48:40;94960.00;;;7.88;84.18
59009;BME280;44794;42.652;23.318;2023-03-01T08:51:16;94966.50;;;7.95;83.51
59009;BME280;44794;42.652;23.318;2023-03-01T08:53:43;94969.63;;;8.15;83.16
59009;BME280;44794;42.652;23.318;2023-03-01T08:56:09;94973.88;;;8.16;81.89
59009;BME280;44794;42.652;23.318;2023-03-01T08:58:35;94967.56;;;8.35;81.80
59009;BME280;44794;42.652;23.318;2023-03-01T09:01:07;94979.09;;;8.58;80.52
59009;BME280;44794;42.652;23.318;2023-03-01T09:03:33;94972.41;;;8.26;81.41
59009;BME280;44794;42.652;23.318;2023-03-01T09:06:03;94970.88;;;8.65;80.87
59009;BME280;44794;42.652;23.318;2023-03-01T09:08:29;94976.59;;;8.98;79.62
59009;BME280;44794;42.652;23.318;2023-03-01T09:10:55;94977.22;;;9.15;78.67
59009;BME280;44794;42.652;23.318;2023-03-01T09:13:21;94976.97;;;8.78;78.78
59009;BME280;44794;42.652;23.318;2023-03-01T09:15:48;94977.97;;;8.48;80.34
59009;BME280;44794;42.652;23.318;2023-03-01T09:18:14;94977.97;;;8.76;80.00
59009;BME280;44794;42.652;23.318;2023-03-01T09:20:39;94973.25;;;9.10;79.07
59009;BME280;44794;42.652;23.318;2023-03-01T09:23:05;94966.53;;;8.94;78.37
59009;BME280;44794;42.652;23.318;2023-03-01T09:25:31;94968.38;;;9.32;78.05
59009;BME280;44794;42.652;23.318;2023-03-01T09:27:56;94972.00;;;9.56;76.45
59009;BME280;44794;42.652;23.318;2023-03-01T09:30:22;94980.00;;;9.91;75.23
59009;BME280;44794;42.652;23.318;2023-03-01T09:32:47;94974.94;;;9.90;74.38
59009;BME280;44794;42.652;23.318;2023-03-01T09:35:13;94981.13;;;10.01;74.47
59009;BME280;44794;42.652;23.318;2023-03-01T09:37:38;94976.44;;;9.68;74.99
59009;BME280;44794;42.652;23.318;2023-03-01T09:40:19;94972.00;;;9.56;75.39
59009;BME280;44794;42.652;23.318;2023-03-01T09:42:51;94965.88;;;9.57;76.09
59009;BME280;44794;42.652;23.318;2023-03-01T09:45:33;94965.69;;;9.33;76.28
59009;BME280;44794;42.652;23.318;2023-03-01T09:48:01;94968.44;;;9.04;77.50
59009;BME280;44794;42.652;23.318;2023-03-01T09:50:33;94958.47;;;8.98;78.45
59009;BME280;44794;42.652;23.318;2023-03-01T09:53:07;94954.88;;;9.27;78.12
59009;BME280;44794;42.652;23.318;2023-03-01T10:01:28;94947.94;;;8.73;79.39
59009;BME280;44794;42.652;23.318;2023-03-01T10:07:13;94941.28;;;8.83;79.57
59009;BME280;44794;42.652;23.318;2023-03-01T10:09:44;94936.16;;;8.95;79.28
59009;BME280;44794;42.652;23.318;2023-03-01T10:12:19;94939.22;;;8.88;79.21
59009;BME280;44794;42.652;23.318;2023-03-01T10:15:15;94927.19;;;9.01;79.06
59009;BME280;44794;42.652;23.318;2023-03-01T10:18:00;94940.41;;;8.96;78.43
59009;BME280;44794;42.652;23.318;2023-03-01T10:20:46;94940.91;;;8.75;79.64
59009;BME280;44794;42.652;23.318;2023-03-01T10:23:13;94921.66;;;8.79;79.85
59009;BME280;44794;42.652;23.318;2023-03-01T10:31:36;94917.50;;;8.77;80.41
59009;BME280;44794;42.652;23.318;2023-03-01T10:34:15;94918.66;;;8.99;80.06
59009;BME280;44794;42.652;23.318;2023-03-01T10:36:42;94911.31;;;8.79;79.79
59009;BME280;44794;42.652;23.318;2023-03-01T10:39:17;94913.91;;;8.65;80.82
59009;BME280;44794;42.652;23.318;2023-03-01T10:42:02;94911.25;;;8.81;79.46
59009;BME280;44794;42.652;23.318;2023-03-01T10:44:36;94902.44;;;8.83;80.13
59009;BME280;44794;42.652;23.318;2023-03-01T10:47:02;94906.22;;;8.92;79.72
59009;BME280;44794;42.652;23.318;2023-03-01T10:49:28;94902.03;;;9.03;79.33
59009;BME280;44794;42.652;23.318;2023-03-01T10:51:54;94907.50;;;8.98;78.92
59009;BME280;44794;42.652;23.318;2023-03-01T10:54:24;94917.31;;;9.20;78.16
59009;BME280;44794;42.652;23.318;2023-03-01T10:56:58;94914.91;;;8.91;78.97
59009;BME280;44794;42.652;23.318;2023-03-01T10:59:31;94912.78;;;8.83;78.66
59009;BME280;44794;42.652;23.318;2023-03-01T11:02:09;94912.88;;;9.48;77.72
59009;BME280;44794;42.652;23.318;2023-03-01T11:04:38;94913.09;;;9.84;75.75
59009;BME280;44794;42.652;23.318;2023-03-01T11:07:04;94899.63;;;9.65;75.30
59009;BME280;44794;42.652;23.318;2023-03-01T11:09:33;94910.19;;;9.23;77.05
59009;BME280;44794;42.652;23.318;2023-03-01T11:12:13;94899.56;;;9.14;77.62
59009;BME280;44794;42.652;23.318;2023-03-01T11:14:49;94915.97;;;8.60;79.14
59009;BME280;44794;42.652;23.318;2023-03-01T11:17:28;94907.41;;;8.86;79.29
59009;BME280;44794;42.652;23.318;2023-03-01T11:20:31;94916.03;;;9.13;78.86
59009;BME280;44794;42.652;23.318;2023-03-01T11:23:09;94906.16;;;8.65;79.48
59009;BME280;44794;42.652;23.318;2023-03-01T11:25:37;94911.50;;;8.90;79.64
59009;BME280;44794;42.652;23.318;2023-03-01T11:28:06;94909.00;;;9.15;78.94
59009;BME280;44794;42.652;23.318;2023-03-01T11:31:06;94913.22;;;9.30;78.28
59009;BME280;44794;42.652;23.318;2023-03-01T11:33:34;94905.78;;;9.11;78.74
59009;BME280;44794;42.652;23.318;2023-03-01T11:38:34;94902.28;;;9.39;78.00
59009;BME280;44794;42.652;23.318;2023-03-01T11:41:05;94901.94;;;9.31;77.32
59009;BME280;44794;42.652;23.318;2023-03-01T11:43:45;94894.59;;;9.11;78.76
59009;BME280;44794;42.652;23.318;2023-03-01T12:08:45;94872.00;;;9.13;76.99
59009;BME280;44794;42.652;23.318;2023-03-01T12:14:12;94870.59;;;9.60;76.19
59009;BME280;44794;42.652;23.318;2023-03-01T12:25:16;94862.09;;;10.09;74.27
59009;BME280;44794;42.652;23.318;2023-03-01T12:30:57;94861.34;;;10.20;72.67
59009;BME280;44794;42.652;23.318;2023-03-01T12:33:49;94856.34;;;9.92;72.79
59009;BME280;44794;42.652;23.318;2023-03-01T12:38:58;94849.78;;;9.74;73.37
59009;BME280;44794;42.652;23.318;2023-03-01T12:47:20;94851.22;;;9.90;72.35
59009;BME280;44794;42.652;23.318;2023-03-01T12:49:53;94844.72;;;9.85;73.13
59009;BME280;44794;42.652;23.318;2023-03-01T12:54:53;94844.38;;;9.89;73.06
59009;BME280;44794;42.652;23.318;2023-03-01T12:57:30;94835.97;;;9.61;74.05
59009;BME280;44794;42.652;23.318;2023-03-01T13:00:17;94846.56;;;9.70;74.35
59009;BME280;44794;42.652;23.318;2023-03-01T13:03:12;94846.56;;;9.70;73.76
59009;BME280;44794;42.652;23.318;2023-03-01T13:11:03;94852.56;;;9.59;74.35
59009;BME280;44794;42.652;23.318;2023-03-01T13:13:29;94835.53;;;9.55;74.81
59009;BME280;44794;42.652;23.318;2023-03-01T13:15:55;94846.78;;;9.29;75.30
59009;BME280;44794;42.652;23.318;2023-03-01T13:20:56;94840.97;;;9.25;75.68
59009;BME280;44794;42.652;23.318;2023-03-01T13:23:32;94846.31;;;9.49;75.44
59009;BME280;44794;42.652;23.318;2023-03-01T13:26:17;94847.28;;;9.72;74.55
59009;BME280;44794;42.652;23.318;2023-03-01T13:37:25;94845.31;;;8.58;80.19
59009;BME280;44794;42.652;23.318;2023-03-01T13:39:55;94837.41;;;8.47;81.31
59009;BME280;44794;42.652;23.318;2023-03-01T13:42:36;94830.75;;;8.43;81.74
59009;BME280;44794;42.652;23.318;2023-03-01T13:45:40;94835.44;;;8.65;81.67
59009;BME280;44794;42.652;23.318;2023-03-01T13:48:27;94823.53;;;8.62;81.19
59009;BME280;44794;42.652;23.318;2023-03-01T13:51:03;94828.59;;;8.64;81.92
59009;BME280;44794;42.652;23.318;2023-03-01T13:53:36;94825.00;;;8.52;82.43
59009;BME280;44794;42.652;23.318;2023-03-01T13:56:17;94820.66;;;8.67;82.47
59009;BME280;44794;42.652;23.318;2023-03-01T13:59:23;94819.66;;;8.55;81.87
59009;BME280;44794;42.652;23.318;2023-03-01T14:01:57;94814.75;;;8.51;82.80
59009;BME280;44794;42.652;23.318;2023-03-01T14:04:25;94812.81;;;8.54;82.78
59009;BME280;44794;42.652;23.318;2023-03-01T14:09:45;94824.56;;;8.60;82.53
59009;BME280;44794;42.652;23.318;2023-03-01T14:12:48;94818.34;;;8.62;82.27
59009;BME280;44794;42.652;23.318;2023-03-01T14:20:31;94815.53;;;8.65;82.67
59009;BME280;44794;42.652;23.318;2023-03-01T14:23:00;94825.31;;;8.74;82.51
59009;BME280;44794;42.652;23.318;2023-03-01T14:25:28;94821.56;;;8.66;82.34
59009;BME280;44794;42.652;23.318;2023-03-01T14:28:19;94812.25;;;8.63;82.16
59009;BME280;44794;42.652;23.318;2023-03-01T14:30:51;94816.56;;;8.63;82.09
59009;BME280;44794;42.652;23.318;2023-03-01T14:33:27;94814.97;;;8.74;82.09
59009;BME280;44794;42.652;23.318;2023-03-01T14:38:22;94816.47;;;8.64;82.60
59009;BME280;44794;42.652;23.318;2023-03-01T14:40:51;94812.13;;;8.65;82.46
59009;BME280;44794;42.652;23.318;2023-03-01T14:43:22;94811.31;;;8.50;82.82
59009;BME280;44794;42.652;23.318;2023-03-01T14:45:50;94818.31;;;8.22;83.89
59009;BME280;44794;42.652;23.318;2023-03-01T14:48:16;94817.47;;;7.94;84.96
59009;BME280;44794;42.652;23.318;2023-03-01T14:50:44;94802.88;;;7.79;86.25